Melton Mowbray, United Kingdom
Current Conditions -  °F | °C
As of 9:50 PM on Wednesday 28 Jan 2015 (Local Time) from EGNX Reporting Station
Snow Showers Snow Showers  
Wind Chill: 24°   Ceiling: 3800
Heat Index: 36°   Visibility: 6mi
Dew Point: 32°   Wind: 22mph
Humidity: 87%   Direction: 240°WSW
Pressure: 29.41"   Gusts: NA
Location:  52.76°N, 0.89°W
Report Text: EGNX 282150Z 24019KT 9999 -SHSN FEW018 SCT023 BKN038 02/M00 Q0996
Loading
Personal Weather Stations






























Interactive Weather Map New forecast layout! Learn more

10-Day Weather Forecast

Advertisements
Track Severe Weather on mobile